createdAt,value
2022-11-20T00:00:18.852Z,19.24
2022-11-20T00:02:52.720Z,19.23
2022-11-20T00:05:25.800Z,19.23
2022-11-20T00:07:58.845Z,19.23
2022-11-20T00:10:31.756Z,19.22
2022-11-20T00:13:18.696Z,19.21
2022-11-20T00:15:51.818Z,19.21
2022-11-20T00:18:24.862Z,19.21
2022-11-20T00:20:58.770Z,19.21
2022-11-20T00:23:31.857Z,19.21
2022-11-20T00:26:04.794Z,19.21
2022-11-20T00:28:37.746Z,19.21
2022-11-20T00:31:10.849Z,19.21
2022-11-20T00:33:43.754Z,19.20
2022-11-20T00:36:16.740Z,19.20
2022-11-20T00:39:03.429Z,19.20
2022-11-20T00:41:36.879Z,19.19
2022-11-20T00:44:09.712Z,19.19
2022-11-20T00:46:42.876Z,19.19
2022-11-20T00:49:15.880Z,19.18
2022-11-20T00:51:48.634Z,19.18
2022-11-20T00:54:35.774Z,19.18
2022-11-20T00:57:08.884Z,19.18
2022-11-20T00:59:41.901Z,19.17
2022-11-20T01:02:14.768Z,19.17
2022-11-20T01:04:47.922Z,19.17
2022-11-20T01:07:21.959Z,19.17
2022-11-20T01:09:54.966Z,19.17
2022-11-20T01:12:28.877Z,19.17
2022-11-20T01:15:01.913Z,19.17
2022-11-20T01:17:34.632Z,19.17
2022-11-20T01:20:07.916Z,19.17
2022-11-20T01:22:54.813Z,19.17
2022-11-20T01:25:27.877Z,19.16
2022-11-20T01:28:00.898Z,19.16
2022-11-20T01:30:33.808Z,19.16
2022-11-20T01:33:06.960Z,19.15
2022-11-20T01:35:39.823Z,19.15
2022-11-20T01:38:12.925Z,19.15
2022-11-20T01:40:45.937Z,19.14
2022-11-20T01:43:18.965Z,19.14
2022-11-20T01:45:51.892Z,19.13
2022-11-20T01:48:24.893Z,19.13
2022-11-20T01:50:57.654Z,19.13
2022-11-20T01:53:30.911Z,19.12
2022-11-20T01:56:07.749Z,19.12
2022-11-20T01:58:40.933Z,19.12
2022-11-20T02:01:14.022Z,19.11
2022-11-20T02:03:46.991Z,19.11
2022-11-20T02:06:19.976Z,19.10
2022-11-20T02:08:52.999Z,19.10
2022-11-20T02:11:25.974Z,19.10
2022-11-20T02:13:59.007Z,19.09
2022-11-20T02:16:31.988Z,19.09
2022-11-20T02:19:04.996Z,19.09
2022-11-20T02:21:37.974Z,19.09
2022-11-20T02:24:11.036Z,19.09
2022-11-20T02:26:43.910Z,19.09
2022-11-20T02:29:16.933Z,19.09
2022-11-20T02:31:49.934Z,19.09
2022-11-20T02:34:23.021Z,19.09
2022-11-20T02:36:55.721Z,19.08
2022-11-20T02:39:28.920Z,19.08
2022-11-20T02:42:02.022Z,19.08
2022-11-20T02:44:35.064Z,19.08
2022-11-20T02:47:09.025Z,19.07
2022-11-20T02:49:42.017Z,19.07
2022-11-20T02:52:14.965Z,19.07
2022-11-20T02:54:47.951Z,19.07
2022-11-20T02:57:21.041Z,19.07
2022-11-20T02:59:54.083Z,19.06
2022-11-20T03:02:27.096Z,19.06
2022-11-20T03:05:01.035Z,19.06
2022-11-20T03:07:34.053Z,19.06
2022-11-20T03:10:07.021Z,19.05
2022-11-20T03:12:40.078Z,19.05
2022-11-20T03:15:13.005Z,19.05
2022-11-20T03:17:45.988Z,19.05
2022-11-20T03:20:19.084Z,19.05
2022-11-20T03:23:06.031Z,19.04
2022-11-20T03:25:39.002Z,19.04
2022-11-20T03:28:11.980Z,19.03
2022-11-20T03:30:45.093Z,19.03
2022-11-20T03:33:18.026Z,19.03
2022-11-20T03:35:51.094Z,19.02
2022-11-20T03:38:24.061Z,19.02
2022-11-20T03:40:57.130Z,19.01
2022-11-20T03:43:30.159Z,19.01
2022-11-20T03:46:04.094Z,19.00
2022-11-20T03:48:37.143Z,19.00
2022-11-20T03:51:10.042Z,18.99
2022-11-20T03:53:49.101Z,18.98
2022-11-20T03:56:22.068Z,18.98
2022-11-20T03:58:55.172Z,18.97
2022-11-20T04:01:31.152Z,18.96
2022-11-20T04:04:04.191Z,18.95
2022-11-20T04:06:38.081Z,18.95
2022-11-20T04:09:11.192Z,18.94
2022-11-20T04:11:45.143Z,18.94
2022-11-20T04:14:18.200Z,18.93
2022-11-20T04:16:51.058Z,18.92
2022-11-20T04:19:24.451Z,18.92
2022-11-20T04:21:57.131Z,18.91
2022-11-20T04:24:30.198Z,18.90
2022-11-20T04:27:03.112Z,18.90
2022-11-20T04:29:36.200Z,18.89
2022-11-20T04:32:09.108Z,18.88
2022-11-20T04:34:42.179Z,18.88
2022-11-20T04:37:15.136Z,18.87
2022-11-20T04:39:48.140Z,18.86
2022-11-20T04:42:21.078Z,18.86
2022-11-20T04:44:54.198Z,18.85
2022-11-20T04:47:27.218Z,18.85
2022-11-20T04:50:00.336Z,18.84
2022-11-20T04:52:33.219Z,18.84
2022-11-20T04:55:06.248Z,18.84
2022-11-20T04:57:39.170Z,18.83
2022-11-20T05:00:12.138Z,18.83
2022-11-20T05:02:59.133Z,18.82
2022-11-20T05:05:32.255Z,18.82
2022-11-20T05:08:08.170Z,18.82
2022-11-20T05:10:41.291Z,18.81
2022-11-20T05:13:15.195Z,18.80
2022-11-20T05:15:48.194Z,18.80
2022-11-20T05:18:21.061Z,18.79
2022-11-20T05:20:54.220Z,18.79
2022-11-20T05:23:27.261Z,18.78
2022-11-20T05:26:00.273Z,18.78
2022-11-20T05:28:33.311Z,18.77
2022-11-20T05:31:06.281Z,18.77
2022-11-20T05:33:39.254Z,18.77
2022-11-20T05:36:12.237Z,18.76
2022-11-20T05:38:47.935Z,18.76
2022-11-20T05:41:18.204Z,18.76
2022-11-20T05:43:51.227Z,18.76
2022-11-20T05:46:28.213Z,18.75
2022-11-20T05:48:57.327Z,18.75
2022-11-20T05:51:30.299Z,18.75
2022-11-20T05:54:03.302Z,18.74
2022-11-20T05:56:36.317Z,18.74
2022-11-20T05:59:09.191Z,18.74
2022-11-20T06:01:42.309Z,18.73
2022-11-20T06:04:15.347Z,18.73
2022-11-20T06:06:48.302Z,18.72
2022-11-20T06:09:21.531Z,18.72
2022-11-20T06:11:54.347Z,18.72
2022-11-20T06:14:27.273Z,18.71
2022-11-20T06:17:00.415Z,18.71
2022-11-20T06:19:34.347Z,18.71
2022-11-20T06:22:07.070Z,18.70
2022-11-20T06:24:40.263Z,18.70
2022-11-20T06:30:03.377Z,18.69
2022-11-20T06:32:36.287Z,18.69
2022-11-20T06:35:09.402Z,18.69
2022-11-20T06:37:42.326Z,18.69
2022-11-20T06:40:15.384Z,18.68
2022-11-20T06:42:48.391Z,18.68
2022-11-20T06:45:21.078Z,18.68
2022-11-20T06:47:54.428Z,18.68
2022-11-20T06:50:27.389Z,18.68
2022-11-20T06:53:00.417Z,18.68
2022-11-20T06:55:33.400Z,18.67
2022-11-20T06:58:06.324Z,18.68
2022-11-20T07:00:39.192Z,18.68
2022-11-20T07:03:12.032Z,18.68
2022-11-20T07:05:45.204Z,18.68
2022-11-20T07:08:20.135Z,18.68
2022-11-20T07:10:53.427Z,18.68
2022-11-20T07:13:26.430Z,18.67
2022-11-20T07:15:59.445Z,18.67
2022-11-20T07:18:32.428Z,18.67
2022-11-20T07:21:05.126Z,18.66
2022-11-20T07:23:38.098Z,18.66
2022-11-20T07:26:11.335Z,18.65
2022-11-20T07:28:44.193Z,18.64
2022-11-20T07:31:19.382Z,18.64
2022-11-20T07:33:50.158Z,18.63
2022-11-20T07:36:23.252Z,18.62
2022-11-20T07:38:56.296Z,18.62
2022-11-20T07:41:29.168Z,18.62
2022-11-20T07:44:02.299Z,18.61
2022-11-20T07:46:35.308Z,18.61
2022-11-20T07:49:08.292Z,18.60
2022-11-20T07:51:41.197Z,18.59
2022-11-20T07:54:14.138Z,18.59
2022-11-20T07:56:47.273Z,18.58
2022-11-20T07:59:20.752Z,18.58
2022-11-20T08:01:53.124Z,18.58
2022-11-20T08:04:26.448Z,18.59
2022-11-20T08:06:59.513Z,18.59
2022-11-20T08:09:32.166Z,18.60
2022-11-20T08:12:05.320Z,18.61
2022-11-20T08:14:41.171Z,18.62
2022-11-20T08:17:14.165Z,18.63
2022-11-20T08:19:47.161Z,18.64
2022-11-20T08:22:20.317Z,18.66
2022-11-20T08:24:53.253Z,18.67
2022-11-20T08:27:26.354Z,18.68
2022-11-20T08:29:59.351Z,18.69
2022-11-20T08:32:32.202Z,18.70
2022-11-20T08:35:05.384Z,18.71
2022-11-20T08:37:38.270Z,18.72
2022-11-20T08:40:12.975Z,18.73
2022-11-20T08:42:44.190Z,18.74
2022-11-20T08:45:17.257Z,18.75
2022-11-20T08:47:50.229Z,18.76
2022-11-20T08:50:23.482Z,18.77
2022-11-20T08:52:56.435Z,18.77
2022-11-20T08:55:29.315Z,18.78
2022-11-20T08:58:02.229Z,18.78
2022-11-20T09:00:35.584Z,18.79
2022-11-20T09:03:08.399Z,18.79
2022-11-20T09:05:41.332Z,18.80
2022-11-20T09:08:14.252Z,18.81
2022-11-20T09:10:47.420Z,18.81
2022-11-20T09:13:20.372Z,18.82
2022-11-20T09:15:53.406Z,18.83
2022-11-20T09:18:26.622Z,18.83
2022-11-20T09:20:59.273Z,18.84
2022-11-20T09:23:32.436Z,18.84
2022-11-20T09:26:05.448Z,18.84
2022-11-20T09:28:38.566Z,18.85
2022-11-20T09:31:11.266Z,18.85
2022-11-20T09:33:44.472Z,18.86
2022-11-20T09:36:17.257Z,18.86
2022-11-20T09:38:50.682Z,18.86
2022-11-20T09:41:23.273Z,18.87
2022-11-20T09:43:56.409Z,18.88
2022-11-20T09:46:29.325Z,18.88
2022-11-20T09:49:02.626Z,18.89
2022-11-20T09:51:35.373Z,18.90
2022-11-20T09:54:08.475Z,18.90
2022-11-20T09:56:41.350Z,18.90
2022-11-20T09:59:14.306Z,18.91
2022-11-20T10:01:47.679Z,18.91
2022-11-20T10:04:20.672Z,18.92
2022-11-20T10:07:10.510Z,18.92
2022-11-20T10:09:26.308Z,18.92
2022-11-20T10:11:59.360Z,18.92
2022-11-20T10:14:32.428Z,18.92
2022-11-20T10:17:05.735Z,18.92
2022-11-20T10:19:38.671Z,18.92
2022-11-20T10:22:11.628Z,18.92
2022-11-20T10:24:44.723Z,18.92
2022-11-20T10:27:17.430Z,18.92
2022-11-20T10:29:50.751Z,18.92
2022-11-20T10:32:23.351Z,18.92
2022-11-20T10:34:56.349Z,18.92
2022-11-20T10:37:29.687Z,18.93
2022-11-20T10:40:02.476Z,18.93
2022-11-20T10:42:35.537Z,18.93
2022-11-20T10:45:08.406Z,18.94
2022-11-20T10:47:41.487Z,18.94
2022-11-20T10:50:18.958Z,18.94
2022-11-20T10:52:47.617Z,18.94
2022-11-20T10:55:20.510Z,18.94
2022-11-20T10:57:53.544Z,18.94
2022-11-20T11:00:26.559Z,18.95
2022-11-20T11:02:59.425Z,18.95
2022-11-20T11:05:32.600Z,18.95
2022-11-20T11:08:05.745Z,18.96
2022-11-20T11:10:38.443Z,18.96
2022-11-20T11:13:11.803Z,18.96
2022-11-20T11:15:44.438Z,18.96
2022-11-20T11:18:17.493Z,18.97
2022-11-20T11:20:50.572Z,18.96
2022-11-20T11:23:23.536Z,18.96
2022-11-20T11:25:56.595Z,18.96
2022-11-20T11:28:29.800Z,18.95
2022-11-20T11:31:02.542Z,18.95
2022-11-20T11:33:35.901Z,18.95
2022-11-20T11:36:09.578Z,18.96
2022-11-20T11:38:42.540Z,18.96
2022-11-20T11:41:15.449Z,18.96
2022-11-20T11:46:38.636Z,18.97
2022-11-20T11:49:11.465Z,18.97
2022-11-20T11:51:44.540Z,18.97
2022-11-20T11:54:23.595Z,18.98
2022-11-20T11:56:56.476Z,18.98
2022-11-20T11:59:29.573Z,18.99
2022-11-20T12:02:02.531Z,18.99
2022-11-20T12:04:35.527Z,18.99
2022-11-20T12:07:31.174Z,18.99
2022-11-20T12:09:41.598Z,18.99
2022-11-20T12:12:14.483Z,18.99
2022-11-20T12:14:47.507Z,18.99
2022-11-20T12:17:20.637Z,18.97
2022-11-20T12:19:53.560Z,18.95
2022-11-20T12:22:26.674Z,18.94
2022-11-20T12:25:13.429Z,18.93
2022-11-20T12:27:46.596Z,18.93
2022-11-20T12:30:19.698Z,18.92
2022-11-20T12:32:52.656Z,18.92
2022-11-20T12:35:25.595Z,18.92
2022-11-20T12:37:58.659Z,18.92
2022-11-20T12:40:31.706Z,18.92
2022-11-20T12:43:04.576Z,18.92
2022-11-20T12:45:37.831Z,18.93
2022-11-20T12:48:10.626Z,18.93
2022-11-20T12:51:08.080Z,18.93
2022-11-20T12:53:16.928Z,18.94
2022-11-20T12:55:49.860Z,18.94
2022-11-20T12:58:22.912Z,18.94
2022-11-20T13:01:01.698Z,18.95
2022-11-20T13:03:34.930Z,18.95
2022-11-20T13:06:07.920Z,18.95
2022-11-20T13:08:40.602Z,18.95
2022-11-20T13:11:13.911Z,18.96
2022-11-20T13:13:46.862Z,18.96
2022-11-20T13:16:19.906Z,18.96
2022-11-20T13:18:53.013Z,18.96
2022-11-20T13:21:26.986Z,18.97
2022-11-20T13:23:59.636Z,18.97
2022-11-20T13:26:32.896Z,18.97
2022-11-20T13:29:05.993Z,18.97
2022-11-20T13:31:38.763Z,18.98
2022-11-20T13:34:11.946Z,18.98
2022-11-20T13:36:44.603Z,18.99
2022-11-20T13:39:17.893Z,18.99
2022-11-20T13:41:50.885Z,19.00
2022-11-20T13:44:24.517Z,19.00
2022-11-20T13:46:56.773Z,19.01
2022-11-20T13:49:30.034Z,19.01
2022-11-20T13:52:02.763Z,19.02
2022-11-20T13:54:36.038Z,19.03
2022-11-20T13:57:08.675Z,19.04
2022-11-20T13:59:41.963Z,19.04
2022-11-20T14:02:14.941Z,19.05
2022-11-20T14:04:48.053Z,19.05
2022-11-20T14:07:21.198Z,19.06
2022-11-20T14:09:54.027Z,19.06
2022-11-20T14:12:27.049Z,19.06
2022-11-20T14:15:00.067Z,19.05
2022-11-20T14:17:46.762Z,19.05
2022-11-20T14:20:19.966Z,19.05
2022-11-20T14:22:52.716Z,19.04
2022-11-20T14:25:25.973Z,19.04
2022-11-20T14:27:59.101Z,19.03
2022-11-20T14:30:31.696Z,19.03
2022-11-20T14:33:05.085Z,19.02
2022-11-20T14:35:38.150Z,19.01
2022-11-20T14:38:11.988Z,19.01
2022-11-20T14:40:45.100Z,19.00
2022-11-20T14:43:17.966Z,18.99
2022-11-20T14:45:51.149Z,18.98
2022-11-20T14:48:25.074Z,18.97
2022-11-20T14:50:58.140Z,18.96
2022-11-20T14:53:30.902Z,18.95
2022-11-20T14:56:03.998Z,18.94
2022-11-20T14:58:37.040Z,18.93
